sensor_id;sensor_type;location;lat;lon;timestamp;P1;durP1;ratioP1;P2;durP2;ratioP2
21665;SDS011;10994;45.486;9.190;2024-01-30T00:02:13;35.30;;;22.07;;
21665;SDS011;10994;45.486;9.190;2024-01-30T00:04:39;34.77;;;21.23;;
21665;SDS011;10994;45.486;9.190;2024-01-30T00:07:05;39.87;;;21.17;;
21665;SDS011;10994;45.486;9.190;2024-01-30T00:09:31;40.07;;;21.63;;
21665;SDS011;10994;45.486;9.190;2024-01-30T00:11:57;37.77;;;22.47;;
21665;SDS011;10994;45.486;9.190;2024-01-30T00:14:23;38.23;;;22.67;;
21665;SDS011;10994;45.486;9.190;2024-01-30T00:16:50;35.23;;;19.67;;
21665;SDS011;10994;45.486;9.190;2024-01-30T00:19:16;36.03;;;20.50;;
21665;SDS011;10994;45.486;9.190;2024-01-30T00:21:42;43.20;;;23.40;;
21665;SDS011;10994;45.486;9.190;2024-01-30T00:24:08;37.40;;;20.77;;
21665;SDS011;10994;45.486;9.190;2024-01-30T00:26:34;38.30;;;21.10;;
21665;SDS011;10994;45.486;9.190;2024-01-30T00:29:00;35.33;;;22.23;;
21665;SDS011;10994;45.486;9.190;2024-01-30T00:31:27;37.90;;;21.70;;
21665;SDS011;10994;45.486;9.190;2024-01-30T00:33:53;34.03;;;21.43;;
21665;SDS011;10994;45.486;9.190;2024-01-30T00:36:19;35.90;;;20.27;;
21665;SDS011;10994;45.486;9.190;2024-01-30T00:38:45;42.63;;;22.23;;
21665;SDS011;10994;45.486;9.190;2024-01-30T00:41:11;37.90;;;20.13;;
21665;SDS011;10994;45.486;9.190;2024-01-30T00:43:37;31.77;;;20.40;;
21665;SDS011;10994;45.486;9.190;2024-01-30T00:46:03;33.73;;;20.00;;
21665;SDS011;10994;45.486;9.190;2024-01-30T00:48:29;36.00;;;21.40;;
21665;SDS011;10994;45.486;9.190;2024-01-30T00:50:55;36.93;;;20.90;;
21665;SDS011;10994;45.486;9.190;2024-01-30T00:53:21;32.97;;;19.20;;
21665;SDS011;10994;45.486;9.190;2024-01-30T00:55:47;35.00;;;19.63;;
21665;SDS011;10994;45.486;9.190;2024-01-30T00:58:13;35.03;;;20.33;;
21665;SDS011;10994;45.486;9.190;2024-01-30T01:00:39;38.63;;;20.53;;
21665;SDS011;10994;45.486;9.190;2024-01-30T01:03:05;30.70;;;19.43;;
21665;SDS011;10994;45.486;9.190;2024-01-30T01:05:32;34.27;;;19.90;;
21665;SDS011;10994;45.486;9.190;2024-01-30T01:07:58;35.40;;;21.23;;
21665;SDS011;10994;45.486;9.190;2024-01-30T01:10:24;34.43;;;21.13;;
21665;SDS011;10994;45.486;9.190;2024-01-30T01:12:50;41.87;;;21.40;;
21665;SDS011;10994;45.486;9.190;2024-01-30T01:15:16;34.23;;;19.80;;
21665;SDS011;10994;45.486;9.190;2024-01-30T01:17:42;34.77;;;20.17;;
21665;SDS011;10994;45.486;9.190;2024-01-30T01:20:08;36.40;;;21.33;;
21665;SDS011;10994;45.486;9.190;2024-01-30T01:22:35;34.97;;;20.30;;
21665;SDS011;10994;45.486;9.190;2024-01-30T01:25:03;30.53;;;19.67;;
21665;SDS011;10994;45.486;9.190;2024-01-30T01:27:32;35.07;;;20.63;;
21665;SDS011;10994;45.486;9.190;2024-01-30T01:29:59;30.53;;;18.07;;
21665;SDS011;10994;45.486;9.190;2024-01-30T01:32:25;27.53;;;18.33;;
21665;SDS011;10994;45.486;9.190;2024-01-30T01:34:51;29.20;;;18.10;;
21665;SDS011;10994;45.486;9.190;2024-01-30T01:37:17;30.73;;;18.00;;
21665;SDS011;10994;45.486;9.190;2024-01-30T01:39:43;30.03;;;17.90;;
21665;SDS011;10994;45.486;9.190;2024-01-30T01:42:09;28.13;;;17.47;;
21665;SDS011;10994;45.486;9.190;2024-01-30T01:44:35;27.53;;;17.07;;
21665;SDS011;10994;45.486;9.190;2024-01-30T01:47:02;25.93;;;17.00;;
21665;SDS011;10994;45.486;9.190;2024-01-30T01:49:28;30.07;;;17.63;;
21665;SDS011;10994;45.486;9.190;2024-01-30T01:51:55;30.00;;;19.03;;
21665;SDS011;10994;45.486;9.190;2024-01-30T01:54:25;27.17;;;17.70;;
21665;SDS011;10994;45.486;9.190;2024-01-30T01:56:51;29.60;;;19.23;;
21665;SDS011;10994;45.486;9.190;2024-01-30T01:59:18;28.97;;;18.23;;
21665;SDS011;10994;45.486;9.190;2024-01-30T02:01:44;26.20;;;17.23;;
21665;SDS011;10994;45.486;9.190;2024-01-30T02:04:14;32.03;;;17.27;;
21665;SDS011;10994;45.486;9.190;2024-01-30T02:06:40;27.83;;;16.87;;
21665;SDS011;10994;45.486;9.190;2024-01-30T02:09:06;24.33;;;16.80;;
21665;SDS011;10994;45.486;9.190;2024-01-30T02:11:34;26.00;;;16.87;;
21665;SDS011;10994;45.486;9.190;2024-01-30T02:14:03;27.27;;;16.97;;
21665;SDS011;10994;45.486;9.190;2024-01-30T02:16:29;23.03;;;16.47;;
21665;SDS011;10994;45.486;9.190;2024-01-30T02:18:56;28.40;;;17.30;;
21665;SDS011;10994;45.486;9.190;2024-01-30T02:21:22;24.97;;;16.73;;
21665;SDS011;10994;45.486;9.190;2024-01-30T02:23:48;25.07;;;16.07;;
21665;SDS011;10994;45.486;9.190;2024-01-30T02:26:14;26.20;;;15.80;;
21665;SDS011;10994;45.486;9.190;2024-01-30T02:28:41;22.37;;;14.83;;
21665;SDS011;10994;45.486;9.190;2024-01-30T02:31:07;20.97;;;14.80;;
21665;SDS011;10994;45.486;9.190;2024-01-30T02:33:33;26.37;;;16.53;;
21665;SDS011;10994;45.486;9.190;2024-01-30T02:35:59;22.63;;;14.77;;
21665;SDS011;10994;45.486;9.190;2024-01-30T02:38:25;24.07;;;15.90;;
21665;SDS011;10994;45.486;9.190;2024-01-30T02:40:52;20.70;;;13.97;;
21665;SDS011;10994;45.486;9.190;2024-01-30T02:43:18;19.40;;;14.33;;
21665;SDS011;10994;45.486;9.190;2024-01-30T02:45:44;21.40;;;14.27;;
21665;SDS011;10994;45.486;9.190;2024-01-30T02:48:10;19.20;;;14.43;;
21665;SDS011;10994;45.486;9.190;2024-01-30T02:50:36;23.37;;;15.93;;
21665;SDS011;10994;45.486;9.190;2024-01-30T02:53:02;20.03;;;15.00;;
21665;SDS011;10994;45.486;9.190;2024-01-30T02:55:29;24.17;;;15.57;;
21665;SDS011;10994;45.486;9.190;2024-01-30T02:57:58;23.93;;;15.40;;
21665;SDS011;10994;45.486;9.190;2024-01-30T03:00:24;22.17;;;15.30;;
21665;SDS011;10994;45.486;9.190;2024-01-30T03:02:53;27.60;;;17.53;;
21665;SDS011;10994;45.486;9.190;2024-01-30T03:05:19;25.07;;;15.77;;
21665;SDS011;10994;45.486;9.190;2024-01-30T03:07:45;25.27;;;17.10;;
21665;SDS011;10994;45.486;9.190;2024-01-30T03:10:11;27.43;;;18.73;;
21665;SDS011;10994;45.486;9.190;2024-01-30T03:12:37;28.60;;;18.03;;
21665;SDS011;10994;45.486;9.190;2024-01-30T03:15:03;28.03;;;18.37;;
21665;SDS011;10994;45.486;9.190;2024-01-30T03:17:29;29.27;;;19.63;;
21665;SDS011;10994;45.486;9.190;2024-01-30T03:19:55;29.10;;;18.97;;
21665;SDS011;10994;45.486;9.190;2024-01-30T03:22:21;31.50;;;19.00;;
21665;SDS011;10994;45.486;9.190;2024-01-30T03:24:47;31.20;;;19.17;;
21665;SDS011;10994;45.486;9.190;2024-01-30T03:27:13;30.73;;;18.80;;
21665;SDS011;10994;45.486;9.190;2024-01-30T03:29:39;29.47;;;18.33;;
21665;SDS011;10994;45.486;9.190;2024-01-30T03:32:05;36.20;;;18.73;;
21665;SDS011;10994;45.486;9.190;2024-01-30T03:34:32;29.90;;;20.17;;
21665;SDS011;10994;45.486;9.190;2024-01-30T03:36:58;29.47;;;19.33;;
21665;SDS011;10994;45.486;9.190;2024-01-30T03:39:24;27.47;;;19.07;;
21665;SDS011;10994;45.486;9.190;2024-01-30T03:41:50;26.50;;;18.83;;
21665;SDS011;10994;45.486;9.190;2024-01-30T03:44:16;30.27;;;17.80;;
21665;SDS011;10994;45.486;9.190;2024-01-30T03:46:42;29.63;;;18.90;;
21665;SDS011;10994;45.486;9.190;2024-01-30T03:49:09;31.73;;;19.60;;
21665;SDS011;10994;45.486;9.190;2024-01-30T03:51:35;30.73;;;19.33;;
21665;SDS011;10994;45.486;9.190;2024-01-30T03:54:01;29.67;;;18.27;;
21665;SDS011;10994;45.486;9.190;2024-01-30T03:56:27;28.50;;;19.50;;
21665;SDS011;10994;45.486;9.190;2024-01-30T03:58:53;28.63;;;19.40;;
21665;SDS011;10994;45.486;9.190;2024-01-30T04:01:20;30.27;;;19.27;;
21665;SDS011;10994;45.486;9.190;2024-01-30T04:03:46;29.00;;;20.23;;
21665;SDS011;10994;45.486;9.190;2024-01-30T04:06:12;30.60;;;19.83;;
21665;SDS011;10994;45.486;9.190;2024-01-30T04:08:38;27.93;;;19.53;;
21665;SDS011;10994;45.486;9.190;2024-01-30T04:11:05;28.07;;;18.27;;
21665;SDS011;10994;45.486;9.190;2024-01-30T04:13:31;32.13;;;20.53;;
21665;SDS011;10994;45.486;9.190;2024-01-30T04:15:59;32.20;;;20.23;;
21665;SDS011;10994;45.486;9.190;2024-01-30T04:18:28;28.47;;;20.60;;
21665;SDS011;10994;45.486;9.190;2024-01-30T04:20:54;27.70;;;18.37;;
21665;SDS011;10994;45.486;9.190;2024-01-30T04:23:20;29.33;;;18.60;;
21665;SDS011;10994;45.486;9.190;2024-01-30T04:25:46;31.00;;;19.10;;
21665;SDS011;10994;45.486;9.190;2024-01-30T04:28:12;31.67;;;20.20;;
21665;SDS011;10994;45.486;9.190;2024-01-30T04:30:39;29.80;;;19.37;;
21665;SDS011;10994;45.486;9.190;2024-01-30T04:33:05;30.17;;;19.90;;
21665;SDS011;10994;45.486;9.190;2024-01-30T04:35:31;29.33;;;18.50;;
21665;SDS011;10994;45.486;9.190;2024-01-30T04:37:57;27.17;;;19.10;;
21665;SDS011;10994;45.486;9.190;2024-01-30T04:40:23;28.00;;;18.10;;
21665;SDS011;10994;45.486;9.190;2024-01-30T04:42:49;29.33;;;18.00;;
21665;SDS011;10994;45.486;9.190;2024-01-30T04:45:15;28.70;;;17.73;;
21665;SDS011;10994;45.486;9.190;2024-01-30T04:47:42;32.80;;;16.17;;
21665;SDS011;10994;45.486;9.190;2024-01-30T04:50:08;23.77;;;16.37;;
21665;SDS011;10994;45.486;9.190;2024-01-30T04:52:34;25.63;;;17.00;;
21665;SDS011;10994;45.486;9.190;2024-01-30T04:55:00;22.80;;;15.47;;
21665;SDS011;10994;45.486;9.190;2024-01-30T04:57:26;22.47;;;16.23;;
21665;SDS011;10994;45.486;9.190;2024-01-30T04:59:55;21.80;;;15.73;;
21665;SDS011;10994;45.486;9.190;2024-01-30T05:02:21;26.97;;;16.47;;
21665;SDS011;10994;45.486;9.190;2024-01-30T05:04:47;23.70;;;15.77;;
21665;SDS011;10994;45.486;9.190;2024-01-30T05:07:13;22.27;;;15.07;;
21665;SDS011;10994;45.486;9.190;2024-01-30T05:09:39;19.57;;;14.60;;
21665;SDS011;10994;45.486;9.190;2024-01-30T05:12:06;22.23;;;14.23;;
21665;SDS011;10994;45.486;9.190;2024-01-30T05:14:32;24.37;;;15.07;;
21665;SDS011;10994;45.486;9.190;2024-01-30T05:16:58;20.03;;;14.13;;
21665;SDS011;10994;45.486;9.190;2024-01-30T05:19:24;21.93;;;14.40;;
21665;SDS011;10994;45.486;9.190;2024-01-30T05:21:50;18.77;;;14.40;;
21665;SDS011;10994;45.486;9.190;2024-01-30T05:24:16;24.03;;;14.77;;
21665;SDS011;10994;45.486;9.190;2024-01-30T05:26:43;22.43;;;14.23;;
21665;SDS011;10994;45.486;9.190;2024-01-30T05:29:09;20.73;;;13.23;;
21665;SDS011;10994;45.486;9.190;2024-01-30T05:31:35;24.60;;;14.27;;
21665;SDS011;10994;45.486;9.190;2024-01-30T05:34:01;20.00;;;13.77;;
21665;SDS011;10994;45.486;9.190;2024-01-30T05:36:27;18.27;;;13.43;;
21665;SDS011;10994;45.486;9.190;2024-01-30T05:38:53;19.97;;;14.43;;
21665;SDS011;10994;45.486;9.190;2024-01-30T05:41:19;21.07;;;13.93;;
21665;SDS011;10994;45.486;9.190;2024-01-30T05:43:48;21.73;;;14.37;;
21665;SDS011;10994;45.486;9.190;2024-01-30T05:46:14;25.27;;;15.70;;
21665;SDS011;10994;45.486;9.190;2024-01-30T05:48:40;20.90;;;14.50;;
21665;SDS011;10994;45.486;9.190;2024-01-30T05:51:07;21.73;;;14.67;;
21665;SDS011;10994;45.486;9.190;2024-01-30T05:53:33;22.07;;;15.13;;
21665;SDS011;10994;45.486;9.190;2024-01-30T05:56:03;26.77;;;16.43;;
21665;SDS011;10994;45.486;9.190;2024-01-30T05:58:29;23.53;;;15.23;;
21665;SDS011;10994;45.486;9.190;2024-01-30T06:00:58;26.83;;;13.40;;
21665;SDS011;10994;45.486;9.190;2024-01-30T06:03:25;22.83;;;14.20;;
21665;SDS011;10994;45.486;9.190;2024-01-30T06:05:51;18.77;;;13.30;;
21665;SDS011;10994;45.486;9.190;2024-01-30T06:08:17;24.00;;;13.87;;
21665;SDS011;10994;45.486;9.190;2024-01-30T06:10:43;19.93;;;14.10;;
21665;SDS011;10994;45.486;9.190;2024-01-30T06:13:09;23.27;;;14.13;;
21665;SDS011;10994;45.486;9.190;2024-01-30T06:15:35;24.40;;;14.47;;
21665;SDS011;10994;45.486;9.190;2024-01-30T06:18:01;26.37;;;15.53;;
21665;SDS011;10994;45.486;9.190;2024-01-30T06:20:27;26.97;;;14.87;;
21665;SDS011;10994;45.486;9.190;2024-01-30T06:22:53;20.80;;;15.40;;
21665;SDS011;10994;45.486;9.190;2024-01-30T06:25:19;26.13;;;15.47;;
21665;SDS011;10994;45.486;9.190;2024-01-30T06:27:45;23.50;;;14.90;;
21665;SDS011;10994;45.486;9.190;2024-01-30T06:30:12;23.37;;;16.83;;
21665;SDS011;10994;45.486;9.190;2024-01-30T06:32:38;22.67;;;15.37;;
21665;SDS011;10994;45.486;9.190;2024-01-30T06:35:04;23.73;;;16.40;;
21665;SDS011;10994;45.486;9.190;2024-01-30T06:37:31;25.33;;;15.83;;
21665;SDS011;10994;45.486;9.190;2024-01-30T06:39:57;23.57;;;16.17;;
21665;SDS011;10994;45.486;9.190;2024-01-30T06:42:23;23.13;;;15.30;;
21665;SDS011;10994;45.486;9.190;2024-01-30T06:44:49;21.40;;;14.57;;
21665;SDS011;10994;45.486;9.190;2024-01-30T06:47:15;26.73;;;15.63;;
21665;SDS011;10994;45.486;9.190;2024-01-30T06:49:41;21.67;;;15.13;;
21665;SDS011;10994;45.486;9.190;2024-01-30T06:52:08;27.80;;;16.63;;
21665;SDS011;10994;45.486;9.190;2024-01-30T06:54:35;23.60;;;15.13;;
21665;SDS011;10994;45.486;9.190;2024-01-30T06:57:01;26.23;;;17.03;;
21665;SDS011;10994;45.486;9.190;2024-01-30T06:59:28;30.70;;;16.23;;
21665;SDS011;10994;45.486;9.190;2024-01-30T07:01:54;26.60;;;16.40;;
21665;SDS011;10994;45.486;9.190;2024-01-30T07:04:20;23.57;;;15.70;;
21665;SDS011;10994;45.486;9.190;2024-01-30T07:06:46;25.60;;;16.23;;
21665;SDS011;10994;45.486;9.190;2024-01-30T07:09:12;24.13;;;16.50;;
21665;SDS011;10994;45.486;9.190;2024-01-30T07:11:38;23.90;;;15.77;;
21665;SDS011;10994;45.486;9.190;2024-01-30T07:14:04;23.57;;;15.83;;
21665;SDS011;10994;45.486;9.190;2024-01-30T07:16:30;27.23;;;16.87;;
21665;SDS011;10994;45.486;9.190;2024-01-30T07:18:57;25.03;;;17.03;;
21665;SDS011;10994;45.486;9.190;2024-01-30T07:21:23;26.30;;;16.73;;
21665;SDS011;10994;45.486;9.190;2024-01-30T07:23:55;26.27;;;16.10;;
21665;SDS011;10994;45.486;9.190;2024-01-30T07:26:21;28.60;;;17.43;;
21665;SDS011;10994;45.486;9.190;2024-01-30T07:28:47;25.90;;;17.83;;
21665;SDS011;10994;45.486;9.190;2024-01-30T07:31:15;25.33;;;17.87;;
21665;SDS011;10994;45.486;9.190;2024-01-30T07:33:41;28.87;;;18.10;;
21665;SDS011;10994;45.486;9.190;2024-01-30T07:36:07;31.40;;;18.67;;
21665;SDS011;10994;45.486;9.190;2024-01-30T07:38:33;32.00;;;20.17;;
21665;SDS011;10994;45.486;9.190;2024-01-30T07:40:59;28.90;;;19.30;;
21665;SDS011;10994;45.486;9.190;2024-01-30T07:43:25;32.03;;;19.80;;
21665;SDS011;10994;45.486;9.190;2024-01-30T07:45:51;26.27;;;17.47;;
21665;SDS011;10994;45.486;9.190;2024-01-30T07:48:17;26.83;;;17.03;;
21665;SDS011;10994;45.486;9.190;2024-01-30T07:50:44;23.03;;;16.77;;
21665;SDS011;10994;45.486;9.190;2024-01-30T07:53:10;33.13;;;18.33;;
21665;SDS011;10994;45.486;9.190;2024-01-30T07:55:36;29.87;;;17.47;;
21665;SDS011;10994;45.486;9.190;2024-01-30T07:58:02;33.47;;;18.03;;
21665;SDS011;10994;45.486;9.190;2024-01-30T08:00:29;28.47;;;18.67;;
21665;SDS011;10994;45.486;9.190;2024-01-30T08:02:55;27.47;;;18.07;;
21665;SDS011;10994;45.486;9.190;2024-01-30T08:05:22;33.60;;;18.63;;
21665;SDS011;10994;45.486;9.190;2024-01-30T08:07:48;30.53;;;17.97;;
21665;SDS011;10994;45.486;9.190;2024-01-30T08:10:15;27.53;;;17.43;;
21665;SDS011;10994;45.486;9.190;2024-01-30T08:12:43;31.60;;;18.00;;
21665;SDS011;10994;45.486;9.190;2024-01-30T08:15:09;27.80;;;17.97;;
21665;SDS011;10994;45.486;9.190;2024-01-30T08:17:35;27.77;;;17.87;;
21665;SDS011;10994;45.486;9.190;2024-01-30T08:20:01;24.90;;;17.27;;
21665;SDS011;10994;45.486;9.190;2024-01-30T08:22:29;26.10;;;18.13;;
21665;SDS011;10994;45.486;9.190;2024-01-30T08:24:55;29.63;;;16.80;;
21665;SDS011;10994;45.486;9.190;2024-01-30T08:27:21;34.90;;;18.43;;
21665;SDS011;10994;45.486;9.190;2024-01-30T08:29:47;30.30;;;18.63;;
21665;SDS011;10994;45.486;9.190;2024-01-30T08:32:15;27.00;;;18.20;;
21665;SDS011;10994;45.486;9.190;2024-01-30T08:34:41;27.97;;;19.53;;
21665;SDS011;10994;45.486;9.190;2024-01-30T08:37:07;27.90;;;17.23;;
21665;SDS011;10994;45.486;9.190;2024-01-30T08:39:33;28.20;;;18.40;;
21665;SDS011;10994;45.486;9.190;2024-01-30T08:41:59;25.77;;;18.27;;
21665;SDS011;10994;45.486;9.190;2024-01-30T08:44:25;27.67;;;17.77;;
21665;SDS011;10994;45.486;9.190;2024-01-30T08:46:52;26.67;;;17.80;;
21665;SDS011;10994;45.486;9.190;2024-01-30T08:49:19;33.00;;;18.90;;
21665;SDS011;10994;45.486;9.190;2024-01-30T08:51:45;26.23;;;16.93;;
21665;SDS011;10994;45.486;9.190;2024-01-30T08:54:12;27.67;;;17.50;;
21665;SDS011;10994;45.486;9.190;2024-01-30T08:56:38;29.53;;;17.83;;
21665;SDS011;10994;45.486;9.190;2024-01-30T08:59:04;28.63;;;16.70;;
21665;SDS011;10994;45.486;9.190;2024-01-30T09:01:30;29.63;;;19.27;;
21665;SDS011;10994;45.486;9.190;2024-01-30T09:03:56;27.10;;;17.63;;
21665;SDS011;10994;45.486;9.190;2024-01-30T09:06:22;32.03;;;19.43;;
21665;SDS011;10994;45.486;9.190;2024-01-30T09:08:53;30.73;;;19.47;;
21665;SDS011;10994;45.486;9.190;2024-01-30T09:11:19;35.90;;;19.13;;
21665;SDS011;10994;45.486;9.190;2024-01-30T09:13:45;30.30;;;18.53;;
21665;SDS011;10994;45.486;9.190;2024-01-30T09:16:11;28.63;;;19.60;;
21665;SDS011;10994;45.486;9.190;2024-01-30T09:18:37;28.07;;;19.57;;
21665;SDS011;10994;45.486;9.190;2024-01-30T09:21:03;30.70;;;19.97;;
21665;SDS011;10994;45.486;9.190;2024-01-30T09:23:28;26.07;;;18.40;;
21665;SDS011;10994;45.486;9.190;2024-01-30T09:25:55;28.77;;;20.40;;
21665;SDS011;10994;45.486;9.190;2024-01-30T09:28:21;23.20;;;18.47;;
21665;SDS011;10994;45.486;9.190;2024-01-30T09:30:47;29.33;;;19.90;;
21665;SDS011;10994;45.486;9.190;2024-01-30T09:33:12;37.93;;;20.50;;
21665;SDS011;10994;45.486;9.190;2024-01-30T09:35:38;31.53;;;20.70;;
21665;SDS011;10994;45.486;9.190;2024-01-30T09:38:04;30.03;;;20.63;;
21665;SDS011;10994;45.486;9.190;2024-01-30T09:40:29;29.37;;;19.97;;
21665;SDS011;10994;45.486;9.190;2024-01-30T09:42:55;26.90;;;19.60;;
21665;SDS011;10994;45.486;9.190;2024-01-30T09:45:24;29.00;;;19.53;;
21665;SDS011;10994;45.486;9.190;2024-01-30T09:47:51;30.90;;;19.60;;
21665;SDS011;10994;45.486;9.190;2024-01-30T09:50:18;28.07;;;18.67;;
21665;SDS011;10994;45.486;9.190;2024-01-30T09:52:44;26.77;;;19.57;;
21665;SDS011;10994;45.486;9.190;2024-01-30T09:55:10;32.70;;;19.87;;
21665;SDS011;10994;45.486;9.190;2024-01-30T09:57:36;29.57;;;20.20;;
21665;SDS011;10994;45.486;9.190;2024-01-30T10:00:02;29.47;;;20.30;;
21665;SDS011;10994;45.486;9.190;2024-01-30T10:02:37;35.03;;;20.00;;
21665;SDS011;10994;45.486;9.190;2024-01-30T10:05:03;30.70;;;20.10;;
21665;SDS011;10994;45.486;9.190;2024-01-30T10:07:30;32.77;;;19.97;;
21665;SDS011;10994;45.486;9.190;2024-01-30T10:09:56;32.00;;;20.10;;
21665;SDS011;10994;45.486;9.190;2024-01-30T10:12:22;36.13;;;20.33;;
21665;SDS011;10994;45.486;9.190;2024-01-30T10:14:48;34.43;;;21.17;;
21665;SDS011;10994;45.486;9.190;2024-01-30T10:17:13;30.90;;;19.87;;
21665;SDS011;10994;45.486;9.190;2024-01-30T10:19:39;34.10;;;20.87;;
21665;SDS011;10994;45.486;9.190;2024-01-30T10:22:06;33.90;;;21.83;;
21665;SDS011;10994;45.486;9.190;2024-01-30T10:24:35;28.53;;;20.17;;
21665;SDS011;10994;45.486;9.190;2024-01-30T10:27:01;32.70;;;19.37;;
21665;SDS011;10994;45.486;9.190;2024-01-30T10:29:27;34.00;;;19.30;;
21665;SDS011;10994;45.486;9.190;2024-01-30T10:32:03;27.43;;;18.27;;
21665;SDS011;10994;45.486;9.190;2024-01-30T10:34:31;31.93;;;22.57;;
21665;SDS011;10994;45.486;9.190;2024-01-30T10:37:10;37.60;;;22.03;;
21665;SDS011;10994;45.486;9.190;2024-01-30T10:39:42;31.10;;;21.23;;
21665;SDS011;10994;45.486;9.190;2024-01-30T10:42:11;36.17;;;21.30;;
21665;SDS011;10994;45.486;9.190;2024-01-30T10:47:20;38.37;;;21.80;;
21665;SDS011;10994;45.486;9.190;2024-01-30T10:49:51;29.60;;;21.33;;
21665;SDS011;10994;45.486;9.190;2024-01-30T10:52:18;36.53;;;21.93;;
21665;SDS011;10994;45.486;9.190;2024-01-30T10:54:45;40.93;;;22.63;;
21665;SDS011;10994;45.486;9.190;2024-01-30T10:57:12;37.37;;;23.37;;
21665;SDS011;10994;45.486;9.190;2024-01-30T10:59:40;35.43;;;22.90;;
21665;SDS011;10994;45.486;9.190;2024-01-30T11:02:07;32.70;;;22.37;;
21665;SDS011;10994;45.486;9.190;2024-01-30T11:04:38;36.17;;;21.97;;
21665;SDS011;10994;45.486;9.190;2024-01-30T11:09:48;36.30;;;21.63;;
21665;SDS011;10994;45.486;9.190;2024-01-30T11:12:37;35.93;;;23.37;;
21665;SDS011;10994;45.486;9.190;2024-01-30T11:15:09;33.60;;;23.27;;
21665;SDS011;10994;45.486;9.190;2024-01-30T11:20:21;43.73;;;23.37;;
21665;SDS011;10994;45.486;9.190;2024-01-30T11:22:54;36.10;;;24.17;;
21665;SDS011;10994;45.486;9.190;2024-01-30T11:25:21;36.87;;;24.37;;
21665;SDS011;10994;45.486;9.190;2024-01-30T11:27:52;39.53;;;24.23;;
21665;SDS011;10994;45.486;9.190;2024-01-30T11:30:27;36.73;;;23.20;;
21665;SDS011;10994;45.486;9.190;2024-01-30T11:33:01;34.67;;;22.33;;
21665;SDS011;10994;45.486;9.190;2024-01-30T11:35:32;39.17;;;23.47;;
21665;SDS011;10994;45.486;9.190;2024-01-30T11:38:00;50.47;;;27.93;;
21665;SDS011;10994;45.486;9.190;2024-01-30T11:40:30;35.90;;;24.00;;
21665;SDS011;10994;45.486;9.190;2024-01-30T11:43:00;53.53;;;25.10;;
21665;SDS011;10994;45.486;9.190;2024-01-30T11:45:27;35.13;;;23.77;;
21665;SDS011;10994;45.486;9.190;2024-01-30T11:47:53;44.17;;;24.13;;
21665;SDS011;10994;45.486;9.190;2024-01-30T11:50:19;37.80;;;26.40;;
21665;SDS011;10994;45.486;9.190;2024-01-30T11:52:45;37.93;;;24.83;;
21665;SDS011;10994;45.486;9.190;2024-01-30T11:55:12;37.30;;;23.53;;
21665;SDS011;10994;45.486;9.190;2024-01-30T11:57:39;41.50;;;25.17;;
21665;SDS011;10994;45.486;9.190;2024-01-30T12:00:05;38.87;;;25.17;;
21665;SDS011;10994;45.486;9.190;2024-01-30T12:02:38;37.50;;;24.03;;
21665;SDS011;10994;45.486;9.190;2024-01-30T12:05:08;45.73;;;26.00;;
21665;SDS011;10994;45.486;9.190;2024-01-30T12:07:36;35.77;;;23.40;;
21665;SDS011;10994;45.486;9.190;2024-01-30T12:10:02;39.73;;;22.43;;
21665;SDS011;10994;45.486;9.190;2024-01-30T12:12:28;34.37;;;23.17;;
21665;SDS011;10994;45.486;9.190;2024-01-30T12:14:56;36.80;;;23.67;;
21665;SDS011;10994;45.486;9.190;2024-01-30T12:17:28;36.70;;;23.07;;
21665;SDS011;10994;45.486;9.190;2024-01-30T12:22:31;34.73;;;22.80;;
21665;SDS011;10994;45.486;9.190;2024-01-30T12:24:57;45.00;;;24.80;;
21665;SDS011;10994;45.486;9.190;2024-01-30T12:27:23;35.73;;;24.13;;
21665;SDS011;10994;45.486;9.190;2024-01-30T12:29:55;40.23;;;26.13;;
21665;SDS011;10994;45.486;9.190;2024-01-30T12:32:23;37.60;;;25.53;;
21665;SDS011;10994;45.486;9.190;2024-01-30T12:34:49;39.17;;;24.70;;
21665;SDS011;10994;45.486;9.190;2024-01-30T12:37:15;38.63;;;25.50;;
21665;SDS011;10994;45.486;9.190;2024-01-30T12:39:46;45.07;;;27.53;;
21665;SDS011;10994;45.486;9.190;2024-01-30T12:42:13;47.00;;;27.83;;
21665;SDS011;10994;45.486;9.190;2024-01-30T12:44:39;33.80;;;25.70;;
21665;SDS011;10994;45.486;9.190;2024-01-30T12:47:05;42.67;;;27.17;;
21665;SDS011;10994;45.486;9.190;2024-01-30T12:49:31;33.43;;;24.37;;
21665;SDS011;10994;45.486;9.190;2024-01-30T12:51:56;33.70;;;24.47;;
21665;SDS011;10994;45.486;9.190;2024-01-30T12:54:23;30.80;;;23.33;;
21665;SDS011;10994;45.486;9.190;2024-01-30T12:56:49;33.07;;;24.57;;
21665;SDS011;10994;45.486;9.190;2024-01-30T12:59:15;38.67;;;24.50;;
21665;SDS011;10994;45.486;9.190;2024-01-30T13:01:41;33.20;;;24.87;;
21665;SDS011;10994;45.486;9.190;2024-01-30T13:04:07;45.60;;;26.60;;
21665;SDS011;10994;45.486;9.190;2024-01-30T13:06:33;35.27;;;25.63;;
21665;SDS011;10994;45.486;9.190;2024-01-30T13:08:59;37.80;;;25.30;;
21665;SDS011;10994;45.486;9.190;2024-01-30T13:11:25;36.33;;;25.50;;
21665;SDS011;10994;45.486;9.190;2024-01-30T13:13:51;40.00;;;25.90;;
21665;SDS011;10994;45.486;9.190;2024-01-30T13:16:17;45.30;;;26.93;;
21665;SDS011;10994;45.486;9.190;2024-01-30T13:18:43;45.80;;;27.00;;
21665;SDS011;10994;45.486;9.190;2024-01-30T13:21:10;44.57;;;27.03;;
21665;SDS011;10994;45.486;9.190;2024-01-30T13:23:37;42.57;;;25.93;;
21665;SDS011;10994;45.486;9.190;2024-01-30T13:26:03;39.03;;;27.97;;
21665;SDS011;10994;45.486;9.190;2024-01-30T13:28:30;36.93;;;25.40;;
21665;SDS011;10994;45.486;9.190;2024-01-30T13:30:56;39.03;;;24.90;;
21665;SDS011;10994;45.486;9.190;2024-01-30T13:33:22;42.23;;;25.13;;
21665;SDS011;10994;45.486;9.190;2024-01-30T13:35:48;36.90;;;24.40;;
21665;SDS011;10994;45.486;9.190;2024-01-30T13:38:14;51.47;;;25.73;;
21665;SDS011;10994;45.486;9.190;2024-01-30T13:40:40;40.80;;;23.73;;
21665;SDS011;10994;45.486;9.190;2024-01-30T13:43:06;36.23;;;24.17;;
21665;SDS011;10994;45.486;9.190;2024-01-30T13:45:32;38.97;;;24.53;;
21665;SDS011;10994;45.486;9.190;2024-01-30T13:48:24;36.27;;;24.00;;
21665;SDS011;10994;45.486;9.190;2024-01-30T13:50:50;35.27;;;24.90;;
21665;SDS011;10994;45.486;9.190;2024-01-30T13:53:16;36.43;;;25.33;;
21665;SDS011;10994;45.486;9.190;2024-01-30T13:55:42;39.17;;;25.00;;
21665;SDS011;10994;45.486;9.190;2024-01-30T13:58:08;36.73;;;23.70;;
21665;SDS011;10994;45.486;9.190;2024-01-30T14:00:34;33.90;;;22.67;;
21665;SDS011;10994;45.486;9.190;2024-01-30T14:03:00;45.33;;;25.47;;
21665;SDS011;10994;45.486;9.190;2024-01-30T14:05:26;38.20;;;23.57;;
21665;SDS011;10994;45.486;9.190;2024-01-30T14:07:55;38.90;;;24.73;;
21665;SDS011;10994;45.486;9.190;2024-01-30T14:10:22;33.20;;;23.90;;
21665;SDS011;10994;45.486;9.190;2024-01-30T14:12:48;32.80;;;22.60;;
21665;SDS011;10994;45.486;9.190;2024-01-30T14:15:14;34.37;;;23.37;;
21665;SDS011;10994;45.486;9.190;2024-01-30T14:17:40;38.30;;;21.37;;
21665;SDS011;10994;45.486;9.190;2024-01-30T14:20:06;36.83;;;22.73;;
21665;SDS011;10994;45.486;9.190;2024-01-30T14:22:33;31.97;;;20.60;;
21665;SDS011;10994;45.486;9.190;2024-01-30T14:25:01;35.00;;;22.57;;
21665;SDS011;10994;45.486;9.190;2024-01-30T14:27:31;33.77;;;22.40;;
21665;SDS011;10994;45.486;9.190;2024-01-30T14:29:57;32.77;;;21.77;;